sim
Sign-in with your pilot id or email,
or register
Callsign
Passwort

Schedule Details

Flight Number: OEO5980
Departure: Philadelphia International Airport (KPHL) at 22:30
Arrival: Munich Airport (EDDM) at 06:45

Weather Information
Getting current METAR information for KPHL 181350Z 03010KT 10SM SCT015 SCT055 BKN250 18/14 A2994 RMK AO2
Getting current METAR information for EDDM 181420Z 09012KT CAVOK 19/09 Q1024 NOSIG

Schedule Frequency

Route Map